sensor_id;sensor_type;location;lat;lon;timestamp;P1;durP1;ratioP1;P2;durP2;ratioP2
71176;SDS011;58877;51.992;4.504;2023-07-16T00:00:55;3.60;;;3.20;;
71176;SDS011;58877;51.992;4.504;2023-07-16T00:03:21;3.43;;;3.09;;
71176;SDS011;58877;51.992;4.504;2023-07-16T00:05:49;2.96;;;2.69;;
71176;SDS011;58877;51.992;4.504;2023-07-16T00:08:15;3.27;;;2.97;;
71176;SDS011;58877;51.992;4.504;2023-07-16T00:10:41;2.71;;;2.52;;
71176;SDS011;58877;51.992;4.504;2023-07-16T00:13:06;3.11;;;2.91;;
71176;SDS011;58877;51.992;4.504;2023-07-16T00:15:32;3.24;;;3.01;;
71176;SDS011;58877;51.992;4.504;2023-07-16T00:17:57;3.54;;;3.23;;
71176;SDS011;58877;51.992;4.504;2023-07-16T00:20:23;3.41;;;3.12;;
71176;SDS011;58877;51.992;4.504;2023-07-16T00:22:49;3.26;;;3.03;;
71176;SDS011;58877;51.992;4.504;2023-07-16T00:25:15;3.10;;;2.89;;
71176;SDS011;58877;51.992;4.504;2023-07-16T00:27:41;3.21;;;2.99;;
71176;SDS011;58877;51.992;4.504;2023-07-16T00:30:11;3.22;;;3.01;;
71176;SDS011;58877;51.992;4.504;2023-07-16T00:32:38;3.28;;;3.08;;
71176;SDS011;58877;51.992;4.504;2023-07-16T00:35:07;3.12;;;2.93;;
71176;SDS011;58877;51.992;4.504;2023-07-16T00:37:34;3.34;;;3.15;;
71176;SDS011;58877;51.992;4.504;2023-07-16T00:40:03;3.33;;;3.19;;
71176;SDS011;58877;51.992;4.504;2023-07-16T00:42:33;3.34;;;3.22;;
71176;SDS011;58877;51.992;4.504;2023-07-16T00:45:00;3.20;;;3.09;;
71176;SDS011;58877;51.992;4.504;2023-07-16T00:47:26;2.90;;;2.76;;
71176;SDS011;58877;51.992;4.504;2023-07-16T00:49:52;3.48;;;3.25;;
71176;SDS011;58877;51.992;4.504;2023-07-16T00:52:18;3.78;;;3.54;;
71176;SDS011;58877;51.992;4.504;2023-07-16T00:54:46;3.43;;;3.20;;
71176;SDS011;58877;51.992;4.504;2023-07-16T00:57:13;3.83;;;3.57;;
71176;SDS011;58877;51.992;4.504;2023-07-16T00:59:39;3.28;;;3.10;;
71176;SDS011;58877;51.992;4.504;2023-07-16T01:02:05;3.63;;;3.35;;
71176;SDS011;58877;51.992;4.504;2023-07-16T01:04:31;3.89;;;3.53;;
71176;SDS011;58877;51.992;4.504;2023-07-16T01:06:58;3.66;;;3.36;;
71176;SDS011;58877;51.992;4.504;2023-07-16T01:09:32;4.09;;;3.68;;
71176;SDS011;58877;51.992;4.504;2023-07-16T01:12:09;4.21;;;3.83;;
71176;SDS011;58877;51.992;4.504;2023-07-16T01:14:39;4.20;;;3.76;;
71176;SDS011;58877;51.992;4.504;2023-07-16T01:17:11;4.57;;;4.08;;
71176;SDS011;58877;51.992;4.504;2023-07-16T01:19:37;3.89;;;3.53;;
71176;SDS011;58877;51.992;4.504;2023-07-16T01:30:15;4.39;;;4.10;;
71176;SDS011;58877;51.992;4.504;2023-07-16T01:32:45;4.40;;;4.17;;
71176;SDS011;58877;51.992;4.504;2023-07-16T01:35:12;4.57;;;4.32;;
71176;SDS011;58877;51.992;4.504;2023-07-16T01:37:42;4.53;;;4.33;;
71176;SDS011;58877;51.992;4.504;2023-07-16T01:40:08;4.40;;;4.19;;
71176;SDS011;58877;51.992;4.504;2023-07-16T01:42:34;5.20;;;4.83;;
71176;SDS011;58877;51.992;4.504;2023-07-16T01:45:00;5.38;;;4.89;;
71176;SDS011;58877;51.992;4.504;2023-07-16T01:50:04;5.50;;;5.05;;
71176;SDS011;58877;51.992;4.504;2023-07-16T01:52:31;4.51;;;4.13;;
71176;SDS011;58877;51.992;4.504;2023-07-16T01:54:57;5.05;;;4.72;;
71176;SDS011;58877;51.992;4.504;2023-07-16T01:57:22;4.40;;;4.22;;
71176;SDS011;58877;51.992;4.504;2023-07-16T01:59:48;4.85;;;4.68;;
71176;SDS011;58877;51.992;4.504;2023-07-16T02:02:14;4.49;;;4.28;;
71176;SDS011;58877;51.992;4.504;2023-07-16T02:04:42;4.52;;;4.34;;
71176;SDS011;58877;51.992;4.504;2023-07-16T02:07:08;4.34;;;4.21;;
71176;SDS011;58877;51.992;4.504;2023-07-16T02:09:36;4.29;;;4.17;;
71176;SDS011;58877;51.992;4.504;2023-07-16T02:12:08;4.62;;;4.55;;
71176;SDS011;58877;51.992;4.504;2023-07-16T02:14:37;4.44;;;4.34;;
71176;SDS011;58877;51.992;4.504;2023-07-16T02:17:03;4.61;;;4.45;;
71176;SDS011;58877;51.992;4.504;2023-07-16T02:19:29;4.15;;;4.04;;
71176;SDS011;58877;51.992;4.504;2023-07-16T02:21:55;4.66;;;4.52;;
71176;SDS011;58877;51.992;4.504;2023-07-16T02:24:20;4.64;;;4.53;;
71176;SDS011;58877;51.992;4.504;2023-07-16T02:26:46;4.75;;;4.62;;
71176;SDS011;58877;51.992;4.504;2023-07-16T02:29:12;5.06;;;4.94;;
71176;SDS011;58877;51.992;4.504;2023-07-16T02:31:40;5.32;;;5.13;;
71176;SDS011;58877;51.992;4.504;2023-07-16T02:34:08;5.39;;;5.23;;
71176;SDS011;58877;51.992;4.504;2023-07-16T02:36:43;5.21;;;5.04;;
71176;SDS011;58877;51.992;4.504;2023-07-16T02:39:09;4.53;;;4.41;;
71176;SDS011;58877;51.992;4.504;2023-07-16T02:41:34;5.38;;;5.27;;
71176;SDS011;58877;51.992;4.504;2023-07-16T02:44:01;5.26;;;5.10;;
71176;SDS011;58877;51.992;4.504;2023-07-16T02:46:29;4.90;;;4.75;;
71176;SDS011;58877;51.992;4.504;2023-07-16T02:48:55;4.70;;;4.58;;
71176;SDS011;58877;51.992;4.504;2023-07-16T02:51:21;4.68;;;4.55;;
71176;SDS011;58877;51.992;4.504;2023-07-16T02:53:47;4.87;;;4.69;;
71176;SDS011;58877;51.992;4.504;2023-07-16T02:56:13;4.91;;;4.69;;
71176;SDS011;58877;51.992;4.504;2023-07-16T02:58:38;4.59;;;4.37;;
71176;SDS011;58877;51.992;4.504;2023-07-16T03:01:04;3.98;;;3.84;;
71176;SDS011;58877;51.992;4.504;2023-07-16T03:03:30;4.04;;;3.87;;
71176;SDS011;58877;51.992;4.504;2023-07-16T03:05:56;4.17;;;4.00;;
71176;SDS011;58877;51.992;4.504;2023-07-16T03:08:21;3.90;;;3.76;;
71176;SDS011;58877;51.992;4.504;2023-07-16T03:10:47;3.49;;;3.35;;
71176;SDS011;58877;51.992;4.504;2023-07-16T03:13:13;3.68;;;3.54;;
71176;SDS011;58877;51.992;4.504;2023-07-16T03:15:39;3.45;;;3.32;;
71176;SDS011;58877;51.992;4.504;2023-07-16T03:18:10;3.69;;;3.57;;
71176;SDS011;58877;51.992;4.504;2023-07-16T03:20:39;3.62;;;3.47;;
71176;SDS011;58877;51.992;4.504;2023-07-16T03:23:07;3.84;;;3.67;;
71176;SDS011;58877;51.992;4.504;2023-07-16T03:25:33;3.84;;;3.67;;
71176;SDS011;58877;51.992;4.504;2023-07-16T03:27:59;4.10;;;3.90;;
71176;SDS011;58877;51.992;4.504;2023-07-16T03:30:25;4.19;;;4.02;;
71176;SDS011;58877;51.992;4.504;2023-07-16T03:32:55;4.38;;;4.18;;
71176;SDS011;58877;51.992;4.504;2023-07-16T03:35:21;4.04;;;3.88;;
71176;SDS011;58877;51.992;4.504;2023-07-16T03:37:48;4.31;;;4.11;;
71176;SDS011;58877;51.992;4.504;2023-07-16T03:40:38;4.79;;;4.41;;
71176;SDS011;58877;51.992;4.504;2023-07-16T03:43:04;4.74;;;4.33;;
71176;SDS011;58877;51.992;4.504;2023-07-16T03:45:30;4.86;;;4.50;;
71176;SDS011;58877;51.992;4.504;2023-07-16T03:47:55;4.52;;;4.26;;
71176;SDS011;58877;51.992;4.504;2023-07-16T03:50:21;4.27;;;4.08;;
71176;SDS011;58877;51.992;4.504;2023-07-16T03:52:47;4.30;;;4.12;;
71176;SDS011;58877;51.992;4.504;2023-07-16T03:55:13;4.81;;;4.59;;
71176;SDS011;58877;51.992;4.504;2023-07-16T03:57:40;5.29;;;5.02;;
71176;SDS011;58877;51.992;4.504;2023-07-16T04:00:06;4.20;;;4.03;;
71176;SDS011;58877;51.992;4.504;2023-07-16T04:02:34;4.75;;;4.58;;
71176;SDS011;58877;51.992;4.504;2023-07-16T04:05:00;5.01;;;4.82;;
71176;SDS011;58877;51.992;4.504;2023-07-16T04:07:26;4.77;;;4.63;;
71176;SDS011;58877;51.992;4.504;2023-07-16T04:09:52;3.99;;;3.88;;
71176;SDS011;58877;51.992;4.504;2023-07-16T04:12:18;4.43;;;4.31;;
71176;SDS011;58877;51.992;4.504;2023-07-16T04:14:44;4.12;;;4.05;;
71176;SDS011;58877;51.992;4.504;2023-07-16T04:17:09;4.52;;;4.43;;
71176;SDS011;58877;51.992;4.504;2023-07-16T04:19:35;4.50;;;4.36;;
71176;SDS011;58877;51.992;4.504;2023-07-16T04:22:04;4.38;;;4.28;;
71176;SDS011;58877;51.992;4.504;2023-07-16T04:24:30;4.53;;;4.44;;
71176;SDS011;58877;51.992;4.504;2023-07-16T04:26:58;4.32;;;4.23;;
71176;SDS011;58877;51.992;4.504;2023-07-16T04:29:24;4.78;;;4.60;;
71176;SDS011;58877;51.992;4.504;2023-07-16T04:31:50;4.92;;;4.73;;
71176;SDS011;58877;51.992;4.504;2023-07-16T04:34:19;4.74;;;4.52;;
71176;SDS011;58877;51.992;4.504;2023-07-16T04:36:45;4.77;;;4.57;;
71176;SDS011;58877;51.992;4.504;2023-07-16T04:39:11;4.80;;;4.62;;
71176;SDS011;58877;51.992;4.504;2023-07-16T04:41:39;5.05;;;4.85;;
71176;SDS011;58877;51.992;4.504;2023-07-16T04:44:05;4.91;;;4.81;;
71176;SDS011;58877;51.992;4.504;2023-07-16T04:46:31;4.18;;;4.12;;
71176;SDS011;58877;51.992;4.504;2023-07-16T04:48:56;4.17;;;4.14;;
71176;SDS011;58877;51.992;4.504;2023-07-16T04:51:22;4.13;;;4.08;;
71176;SDS011;58877;51.992;4.504;2023-07-16T04:53:49;4.61;;;4.49;;
71176;SDS011;58877;51.992;4.504;2023-07-16T04:56:15;5.19;;;5.01;;
71176;SDS011;58877;51.992;4.504;2023-07-16T04:58:41;4.69;;;4.56;;
71176;SDS011;58877;51.992;4.504;2023-07-16T05:01:07;4.39;;;4.37;;
71176;SDS011;58877;51.992;4.504;2023-07-16T05:03:34;3.88;;;3.87;;
71176;SDS011;58877;51.992;4.504;2023-07-16T05:06:01;4.56;;;4.49;;
71176;SDS011;58877;51.992;4.504;2023-07-16T05:08:36;4.00;;;3.94;;
71176;SDS011;58877;51.992;4.504;2023-07-16T05:11:02;4.85;;;4.77;;
71176;SDS011;58877;51.992;4.504;2023-07-16T05:13:29;4.47;;;4.32;;
71176;SDS011;58877;51.992;4.504;2023-07-16T05:15:55;4.42;;;4.31;;
71176;SDS011;58877;51.992;4.504;2023-07-16T05:18:22;4.61;;;4.49;;
71176;SDS011;58877;51.992;4.504;2023-07-16T05:20:48;4.26;;;4.14;;
71176;SDS011;58877;51.992;4.504;2023-07-16T05:23:14;4.40;;;4.28;;
71176;SDS011;58877;51.992;4.504;2023-07-16T05:25:47;4.32;;;4.20;;
71176;SDS011;58877;51.992;4.504;2023-07-16T05:28:14;4.20;;;4.14;;
71176;SDS011;58877;51.992;4.504;2023-07-16T05:30:43;4.11;;;4.06;;
71176;SDS011;58877;51.992;4.504;2023-07-16T05:33:11;4.06;;;4.03;;
71176;SDS011;58877;51.992;4.504;2023-07-16T05:35:38;4.38;;;4.29;;
71176;SDS011;58877;51.992;4.504;2023-07-16T05:38:05;4.01;;;3.96;;
71176;SDS011;58877;51.992;4.504;2023-07-16T05:40:31;4.26;;;4.19;;
71176;SDS011;58877;51.992;4.504;2023-07-16T05:42:57;4.47;;;4.34;;
71176;SDS011;58877;51.992;4.504;2023-07-16T05:45:22;4.49;;;4.38;;
71176;SDS011;58877;51.992;4.504;2023-07-16T05:47:48;4.10;;;4.02;;
71176;SDS011;58877;51.992;4.504;2023-07-16T05:50:14;4.21;;;4.14;;
71176;SDS011;58877;51.992;4.504;2023-07-16T05:52:41;4.45;;;4.36;;
71176;SDS011;58877;51.992;4.504;2023-07-16T05:55:07;4.26;;;4.17;;
71176;SDS011;58877;51.992;4.504;2023-07-16T05:57:33;4.64;;;4.54;;
71176;SDS011;58877;51.992;4.504;2023-07-16T05:59:59;4.65;;;4.54;;
71176;SDS011;58877;51.992;4.504;2023-07-16T06:02:24;4.53;;;4.38;;
71176;SDS011;58877;51.992;4.504;2023-07-16T06:04:50;4.43;;;4.37;;
71176;SDS011;58877;51.992;4.504;2023-07-16T06:07:19;4.49;;;4.42;;
71176;SDS011;58877;51.992;4.504;2023-07-16T06:09:48;4.93;;;4.85;;
71176;SDS011;58877;51.992;4.504;2023-07-16T06:12:14;5.14;;;5.00;;
71176;SDS011;58877;51.992;4.504;2023-07-16T06:14:40;4.94;;;4.83;;
71176;SDS011;58877;51.992;4.504;2023-07-16T06:17:05;4.96;;;4.86;;
71176;SDS011;58877;51.992;4.504;2023-07-16T06:19:31;4.84;;;4.75;;
71176;SDS011;58877;51.992;4.504;2023-07-16T06:21:57;4.68;;;4.58;;
71176;SDS011;58877;51.992;4.504;2023-07-16T06:24:26;4.69;;;4.55;;
71176;SDS011;58877;51.992;4.504;2023-07-16T06:26:51;4.70;;;4.61;;
71176;SDS011;58877;51.992;4.504;2023-07-16T06:29:17;4.57;;;4.44;;
71176;SDS011;58877;51.992;4.504;2023-07-16T06:31:56;4.96;;;4.84;;
71176;SDS011;58877;51.992;4.504;2023-07-16T06:34:22;4.89;;;4.68;;
71176;SDS011;58877;51.992;4.504;2023-07-16T06:36:48;4.76;;;4.56;;
71176;SDS011;58877;51.992;4.504;2023-07-16T06:39:14;5.01;;;4.78;;
71176;SDS011;58877;51.992;4.504;2023-07-16T06:41:40;4.99;;;4.76;;
71176;SDS011;58877;51.992;4.504;2023-07-16T06:44:05;4.57;;;4.46;;
71176;SDS011;58877;51.992;4.504;2023-07-16T06:46:31;4.70;;;4.60;;
71176;SDS011;58877;51.992;4.504;2023-07-16T06:48:59;4.56;;;4.45;;
71176;SDS011;58877;51.992;4.504;2023-07-16T06:51:25;4.59;;;4.47;;
71176;SDS011;58877;51.992;4.504;2023-07-16T06:53:50;4.69;;;4.55;;
71176;SDS011;58877;51.992;4.504;2023-07-16T06:56:16;5.12;;;4.96;;
71176;SDS011;58877;51.992;4.504;2023-07-16T06:58:41;4.48;;;4.37;;
71176;SDS011;58877;51.992;4.504;2023-07-16T07:01:07;4.77;;;4.70;;
71176;SDS011;58877;51.992;4.504;2023-07-16T07:03:32;4.87;;;4.74;;
71176;SDS011;58877;51.992;4.504;2023-07-16T07:06:01;5.07;;;4.92;;
71176;SDS011;58877;51.992;4.504;2023-07-16T07:08:29;5.10;;;4.90;;
71176;SDS011;58877;51.992;4.504;2023-07-16T07:10:54;4.85;;;4.63;;
71176;SDS011;58877;51.992;4.504;2023-07-16T07:13:20;5.24;;;5.04;;
71176;SDS011;58877;51.992;4.504;2023-07-16T07:15:45;4.85;;;4.67;;
71176;SDS011;58877;51.992;4.504;2023-07-16T07:18:11;4.98;;;4.86;;
71176;SDS011;58877;51.992;4.504;2023-07-16T07:20:36;4.77;;;4.68;;
71176;SDS011;58877;51.992;4.504;2023-07-16T07:23:02;4.82;;;4.78;;
71176;SDS011;58877;51.992;4.504;2023-07-16T07:25:30;4.70;;;4.68;;
71176;SDS011;58877;51.992;4.504;2023-07-16T07:27:56;4.63;;;4.60;;
71176;SDS011;58877;51.992;4.504;2023-07-16T07:30:22;4.84;;;4.81;;
71176;SDS011;58877;51.992;4.504;2023-07-16T07:32:47;4.59;;;4.55;;
71176;SDS011;58877;51.992;4.504;2023-07-16T07:35:13;4.20;;;4.19;;
71176;SDS011;58877;51.992;4.504;2023-07-16T07:37:38;4.21;;;4.21;;
71176;SDS011;58877;51.992;4.504;2023-07-16T07:40:04;4.70;;;4.68;;
71176;SDS011;58877;51.992;4.504;2023-07-16T07:42:30;4.79;;;4.76;;
71176;SDS011;58877;51.992;4.504;2023-07-16T07:44:56;4.45;;;4.37;;
71176;SDS011;58877;51.992;4.504;2023-07-16T07:47:22;4.85;;;4.72;;
71176;SDS011;58877;51.992;4.504;2023-07-16T07:49:47;4.93;;;4.83;;
71176;SDS011;58877;51.992;4.504;2023-07-16T07:52:13;5.09;;;4.95;;
71176;SDS011;58877;51.992;4.504;2023-07-16T07:54:39;4.63;;;4.49;;
71176;SDS011;58877;51.992;4.504;2023-07-16T07:57:04;4.71;;;4.59;;
71176;SDS011;58877;51.992;4.504;2023-07-16T07:59:30;4.72;;;4.60;;
71176;SDS011;58877;51.992;4.504;2023-07-16T08:01:57;4.61;;;4.54;;
71176;SDS011;58877;51.992;4.504;2023-07-16T08:04:24;4.76;;;4.69;;
71176;SDS011;58877;51.992;4.504;2023-07-16T08:06:50;4.20;;;4.14;;
71176;SDS011;58877;51.992;4.504;2023-07-16T08:09:16;4.55;;;4.46;;
71176;SDS011;58877;51.992;4.504;2023-07-16T08:11:42;4.28;;;4.25;;
71176;SDS011;58877;51.992;4.504;2023-07-16T08:14:07;4.05;;;4.01;;
71176;SDS011;58877;51.992;4.504;2023-07-16T08:16:33;4.12;;;4.04;;
71176;SDS011;58877;51.992;4.504;2023-07-16T08:18:59;4.34;;;4.19;;
71176;SDS011;58877;51.992;4.504;2023-07-16T08:21:24;4.40;;;4.22;;
71176;SDS011;58877;51.992;4.504;2023-07-16T08:23:50;4.09;;;3.96;;
71176;SDS011;58877;51.992;4.504;2023-07-16T08:26:16;4.39;;;4.26;;
71176;SDS011;58877;51.992;4.504;2023-07-16T08:28:42;4.32;;;4.24;;
71176;SDS011;58877;51.992;4.504;2023-07-16T08:31:07;4.63;;;4.57;;
71176;SDS011;58877;51.992;4.504;2023-07-16T08:33:33;4.25;;;4.19;;
71176;SDS011;58877;51.992;4.504;2023-07-16T08:35:58;4.46;;;4.41;;
71176;SDS011;58877;51.992;4.504;2023-07-16T08:38:24;4.22;;;4.14;;
71176;SDS011;58877;51.992;4.504;2023-07-16T08:40:50;4.01;;;3.94;;
71176;SDS011;58877;51.992;4.504;2023-07-16T08:43:15;4.21;;;4.15;;
71176;SDS011;58877;51.992;4.504;2023-07-16T08:45:41;4.25;;;4.18;;
71176;SDS011;58877;51.992;4.504;2023-07-16T08:48:10;4.35;;;4.29;;
71176;SDS011;58877;51.992;4.504;2023-07-16T08:50:36;4.56;;;4.49;;
71176;SDS011;58877;51.992;4.504;2023-07-16T08:53:06;5.05;;;4.89;;
71176;SDS011;58877;51.992;4.504;2023-07-16T08:55:33;5.39;;;5.21;;
71176;SDS011;58877;51.992;4.504;2023-07-16T08:58:00;4.89;;;4.74;;
71176;SDS011;58877;51.992;4.504;2023-07-16T09:00:27;4.54;;;4.44;;
71176;SDS011;58877;51.992;4.504;2023-07-16T09:02:54;4.00;;;3.96;;
71176;SDS011;58877;51.992;4.504;2023-07-16T09:05:20;4.25;;;4.17;;
71176;SDS011;58877;51.992;4.504;2023-07-16T09:07:47;4.10;;;4.00;;
71176;SDS011;58877;51.992;4.504;2023-07-16T09:10:12;4.18;;;4.08;;
71176;SDS011;58877;51.992;4.504;2023-07-16T09:12:45;3.87;;;3.77;;
71176;SDS011;58877;51.992;4.504;2023-07-16T09:15:11;4.17;;;3.97;;
71176;SDS011;58877;51.992;4.504;2023-07-16T09:17:38;3.90;;;3.62;;
71176;SDS011;58877;51.992;4.504;2023-07-16T09:20:04;3.84;;;3.61;;
71176;SDS011;58877;51.992;4.504;2023-07-16T09:22:32;4.15;;;3.86;;
71176;SDS011;58877;51.992;4.504;2023-07-16T09:25:02;3.85;;;3.70;;
71176;SDS011;58877;51.992;4.504;2023-07-16T09:27:31;4.67;;;4.54;;
71176;SDS011;58877;51.992;4.504;2023-07-16T09:29:57;3.94;;;3.87;;
71176;SDS011;58877;51.992;4.504;2023-07-16T09:32:32;4.34;;;4.25;;
71176;SDS011;58877;51.992;4.504;2023-07-16T09:34:58;3.74;;;3.64;;
71176;SDS011;58877;51.992;4.504;2023-07-16T09:37:24;3.75;;;3.64;;
71176;SDS011;58877;51.992;4.504;2023-07-16T09:39:51;3.83;;;3.64;;
71176;SDS011;58877;51.992;4.504;2023-07-16T09:42:17;3.80;;;3.58;;
71176;SDS011;58877;51.992;4.504;2023-07-16T09:44:45;3.57;;;3.32;;
71176;SDS011;58877;51.992;4.504;2023-07-16T09:47:11;3.38;;;3.19;;
71176;SDS011;58877;51.992;4.504;2023-07-16T09:49:38;3.10;;;2.93;;
71176;SDS011;58877;51.992;4.504;2023-07-16T09:52:06;3.66;;;3.47;;
71176;SDS011;58877;51.992;4.504;2023-07-16T09:54:32;3.00;;;2.91;;
71176;SDS011;58877;51.992;4.504;2023-07-16T09:57:04;3.79;;;3.65;;
71176;SDS011;58877;51.992;4.504;2023-07-16T09:59:33;4.05;;;3.93;;
71176;SDS011;58877;51.992;4.504;2023-07-16T10:01:59;3.87;;;3.76;;
71176;SDS011;58877;51.992;4.504;2023-07-16T10:04:25;3.91;;;3.83;;
71176;SDS011;58877;51.992;4.504;2023-07-16T10:06:55;3.76;;;3.70;;
71176;SDS011;58877;51.992;4.504;2023-07-16T10:09:32;3.56;;;3.45;;
71176;SDS011;58877;51.992;4.504;2023-07-16T10:12:12;3.16;;;3.05;;
71176;SDS011;58877;51.992;4.504;2023-07-16T10:14:40;3.17;;;3.04;;
71176;SDS011;58877;51.992;4.504;2023-07-16T10:17:06;3.20;;;3.11;;
71176;SDS011;58877;51.992;4.504;2023-07-16T10:19:34;2.43;;;2.33;;
71176;SDS011;58877;51.992;4.504;2023-07-16T10:22:14;3.29;;;2.98;;
71176;SDS011;58877;51.992;4.504;2023-07-16T10:24:40;2.96;;;2.50;;
71176;SDS011;58877;51.992;4.504;2023-07-16T10:27:06;3.33;;;2.79;;
71176;SDS011;58877;51.992;4.504;2023-07-16T10:29:32;3.33;;;2.87;;
71176;SDS011;58877;51.992;4.504;2023-07-16T10:31:58;3.13;;;2.76;;
71176;SDS011;58877;51.992;4.504;2023-07-16T10:34:24;3.17;;;2.81;;
71176;SDS011;58877;51.992;4.504;2023-07-16T10:36:51;2.93;;;2.65;;
71176;SDS011;58877;51.992;4.504;2023-07-16T10:39:16;2.67;;;2.40;;
71176;SDS011;58877;51.992;4.504;2023-07-16T10:41:42;2.51;;;2.28;;
71176;SDS011;58877;51.992;4.504;2023-07-16T10:44:08;2.74;;;2.55;;
71176;SDS011;58877;51.992;4.504;2023-07-16T10:46:35;2.94;;;2.75;;
71176;SDS011;58877;51.992;4.504;2023-07-16T10:49:02;2.69;;;2.52;;
71176;SDS011;58877;51.992;4.504;2023-07-16T10:51:27;2.25;;;2.10;;
71176;SDS011;58877;51.992;4.504;2023-07-16T10:53:56;2.70;;;2.47;;
71176;SDS011;58877;51.992;4.504;2023-07-16T10:56:22;4.61;;;3.87;;
71176;SDS011;58877;51.992;4.504;2023-07-16T10:58:48;5.19;;;4.06;;
71176;SDS011;58877;51.992;4.504;2023-07-16T11:01:14;3.32;;;2.62;;
71176;SDS011;58877;51.992;4.504;2023-07-16T11:03:40;3.15;;;2.59;;
71176;SDS011;58877;51.992;4.504;2023-07-16T11:06:08;3.10;;;2.67;;
71176;SDS011;58877;51.992;4.504;2023-07-16T11:08:34;3.33;;;2.93;;
71176;SDS011;58877;51.992;4.504;2023-07-16T11:11:00;3.61;;;3.07;;
71176;SDS011;58877;51.992;4.504;2023-07-16T11:13:29;3.28;;;2.78;;
71176;SDS011;58877;51.992;4.504;2023-07-16T11:16:05;2.63;;;2.22;;
71176;SDS011;58877;51.992;4.504;2023-07-16T11:18:32;2.79;;;2.36;;
71176;SDS011;58877;51.992;4.504;2023-07-16T11:20:58;3.25;;;2.72;;
71176;SDS011;58877;51.992;4.504;2023-07-16T11:23:24;3.98;;;3.15;;
71176;SDS011;58877;51.992;4.504;2023-07-16T11:25:52;3.37;;;2.58;;
71176;SDS011;58877;51.992;4.504;2023-07-16T11:28:17;3.67;;;2.82;;
71176;SDS011;58877;51.992;4.504;2023-07-16T11:30:43;4.29;;;3.26;;
71176;SDS011;58877;51.992;4.504;2023-07-16T11:33:11;6.75;;;4.69;;
71176;SDS011;58877;51.992;4.504;2023-07-16T11:35:38;7.18;;;4.68;;
71176;SDS011;58877;51.992;4.504;2023-07-16T11:38:05;5.36;;;3.54;;
71176;SDS011;58877;51.992;4.504;2023-07-16T11:40:31;4.61;;;3.21;;
71176;SDS011;58877;51.992;4.504;2023-07-16T11:43:10;3.50;;;2.57;;
71176;SDS011;58877;51.992;4.504;2023-07-16T11:45:36;3.34;;;2.50;;
71176;SDS011;58877;51.992;4.504;2023-07-16T11:48:03;3.81;;;2.87;;
71176;SDS011;58877;51.992;4.504;2023-07-16T11:50:29;3.68;;;2.74;;
71176;SDS011;58877;51.992;4.504;2023-07-16T11:52:56;3.06;;;2.27;;
71176;SDS011;58877;51.992;4.504;2023-07-16T11:55:24;3.79;;;2.79;;
71176;SDS011;58877;51.992;4.504;2023-07-16T11:57:50;4.54;;;3.28;;
71176;SDS011;58877;51.992;4.504;2023-07-16T12:00:15;5.29;;;3.73;;
71176;SDS011;58877;51.992;4.504;2023-07-16T12:02:42;4.07;;;2.85;;
71176;SDS011;58877;51.992;4.504;2023-07-16T12:05:16;3.61;;;2.58;;
71176;SDS011;58877;51.992;4.504;2023-07-16T12:07:42;3.21;;;2.34;;
71176;SDS011;58877;51.992;4.504;2023-07-16T12:10:08;3.53;;;2.54;;
71176;SDS011;58877;51.992;4.504;2023-07-16T12:12:33;3.56;;;2.56;;
71176;SDS011;58877;51.992;4.504;2023-07-16T12:15:03;4.19;;;2.98;;
71176;SDS011;58877;51.992;4.504;2023-07-16T12:17:32;4.14;;;2.91;;
71176;SDS011;58877;51.992;4.504;2023-07-16T12:19:57;3.88;;;2.75;;
71176;SDS011;58877;51.992;4.504;2023-07-16T12:22:23;4.37;;;3.11;;
71176;SDS011;58877;51.992;4.504;2023-07-16T12:24:49;3.93;;;2.78;;
71176;SDS011;58877;51.992;4.504;2023-07-16T12:27:15;4.78;;;3.35;;
71176;SDS011;58877;51.992;4.504;2023-07-16T12:29:41;4.28;;;3.01;;
71176;SDS011;58877;51.992;4.504;2023-07-16T12:32:07;4.34;;;3.02;;
71176;SDS011;58877;51.992;4.504;2023-07-16T12:34:33;4.21;;;2.94;;
71176;SDS011;58877;51.992;4.504;2023-07-16T12:36:59;4.29;;;3.00;;
71176;SDS011;58877;51.992;4.504;2023-07-16T12:39:25;4.73;;;3.22;;
71176;SDS011;58877;51.992;4.504;2023-07-16T12:41:50;4.17;;;2.86;;
71176;SDS011;58877;51.992;4.504;2023-07-16T12:44:16;4.11;;;2.86;;
71176;SDS011;58877;51.992;4.504;2023-07-16T12:46:41;4.37;;;3.03;;
71176;SDS011;58877;51.992;4.504;2023-07-16T12:49:07;4.74;;;3.25;;
71176;SDS011;58877;51.992;4.504;2023-07-16T12:51:32;4.55;;;3.15;;
71176;SDS011;58877;51.992;4.504;2023-07-16T12:53:58;4.16;;;2.89;;
71176;SDS011;58877;51.992;4.504;2023-07-16T12:56:26;3.50;;;2.42;;
71176;SDS011;58877;51.992;4.504;2023-07-16T12:58:52;3.75;;;2.66;;
71176;SDS011;58877;51.992;4.504;2023-07-16T13:01:17;4.10;;;2.89;;
71176;SDS011;58877;51.992;4.504;2023-07-16T13:03:43;3.77;;;2.69;;
71176;SDS011;58877;51.992;4.504;2023-07-16T13:06:09;3.75;;;2.62;;
71176;SDS011;58877;51.992;4.504;2023-07-16T13:08:35;4.46;;;3.09;;
71176;SDS011;58877;51.992;4.504;2023-07-16T13:11:00;4.47;;;3.02;;
71176;SDS011;58877;51.992;4.504;2023-07-16T13:13:26;5.14;;;3.37;;
71176;SDS011;58877;51.992;4.504;2023-07-16T13:15:55;3.82;;;2.51;;
71176;SDS011;58877;51.992;4.504;2023-07-16T13:18:20;3.79;;;2.54;;
71176;SDS011;58877;51.992;4.504;2023-07-16T13:20:46;4.23;;;2.87;;
71176;SDS011;58877;51.992;4.504;2023-07-16T13:23:12;4.55;;;3.12;;
71176;SDS011;58877;51.992;4.504;2023-07-16T13:25:38;4.34;;;3.00;;
71176;SDS011;58877;51.992;4.504;2023-07-16T13:28:05;4.32;;;2.98;;
71176;SDS011;58877;51.992;4.504;2023-07-16T13:30:33;4.23;;;2.85;;
71176;SDS011;58877;51.992;4.504;2023-07-16T13:32:59;3.98;;;2.73;;
71176;SDS011;58877;51.992;4.504;2023-07-16T13:35:26;3.80;;;2.67;;
71176;SDS011;58877;51.992;4.504;2023-07-16T13:37:52;4.22;;;2.97;;
71176;SDS011;58877;51.992;4.504;2023-07-16T13:40:18;3.85;;;2.68;;
71176;SDS011;58877;51.992;4.504;2023-07-16T13:42:48;4.29;;;2.99;;
71176;SDS011;58877;51.992;4.504;2023-07-16T13:45:14;4.09;;;2.82;;
71176;SDS011;58877;51.992;4.504;2023-07-16T13:47:40;5.76;;;3.88;;
71176;SDS011;58877;51.992;4.504;2023-07-16T13:50:12;5.27;;;3.61;;
71176;SDS011;58877;51.992;4.504;2023-07-16T13:52:37;4.99;;;3.40;;
71176;SDS011;58877;51.992;4.504;2023-07-16T13:55:04;5.30;;;3.54;;
71176;SDS011;58877;51.992;4.504;2023-07-16T13:57:30;6.43;;;4.18;;
71176;SDS011;58877;51.992;4.504;2023-07-16T13:59:56;5.70;;;3.67;;
71176;SDS011;58877;51.992;4.504;2023-07-16T14:02:29;5.67;;;3.69;;
71176;SDS011;58877;51.992;4.504;2023-07-16T14:04:54;6.08;;;3.93;;
71176;SDS011;58877;51.992;4.504;2023-07-16T14:07:20;4.46;;;2.95;;
71176;SDS011;58877;51.992;4.504;2023-07-16T14:09:46;5.25;;;3.46;;
71176;SDS011;58877;51.992;4.504;2023-07-16T14:12:12;5.04;;;3.31;;
71176;SDS011;58877;51.992;4.504;2023-07-16T14:14:37;5.45;;;3.54;;
71176;SDS011;58877;51.992;4.504;2023-07-16T14:17:03;6.09;;;3.95;;
71176;SDS011;58877;51.992;4.504;2023-07-16T14:19:30;5.61;;;3.65;;
71176;SDS011;58877;51.992;4.504;2023-07-16T14:21:55;5.19;;;3.40;;
71176;SDS011;58877;51.992;4.504;2023-07-16T14:24:28;6.77;;;4.45;;
71176;SDS011;58877;51.992;4.504;2023-07-16T14:27:29;5.73;;;3.80;;
71176;SDS011;58877;51.992;4.504;2023-07-16T14:29:56;6.84;;;4.42;;
71176;SDS011;58877;51.992;4.504;2023-07-16T14:32:23;7.87;;;5.03;;
71176;SDS011;58877;51.992;4.504;2023-07-16T14:34:57;6.82;;;4.39;;
71176;SDS011;58877;51.992;4.504;2023-07-16T14:37:23;7.19;;;4.66;;
71176;SDS011;58877;51.992;4.504;2023-07-16T14:39:49;6.72;;;4.38;;
71176;SDS011;58877;51.992;4.504;2023-07-16T14:42:15;5.31;;;3.45;;
71176;SDS011;58877;51.992;4.504;2023-07-16T14:44:40;6.12;;;4.02;;
71176;SDS011;58877;51.992;4.504;2023-07-16T14:47:06;5.34;;;3.56;;
71176;SDS011;58877;51.992;4.504;2023-07-16T14:49:33;5.63;;;3.83;;
71176;SDS011;58877;51.992;4.504;2023-07-16T14:51:58;4.54;;;3.18;;
71176;SDS011;58877;51.992;4.504;2023-07-16T14:54:24;6.56;;;4.47;;
71176;SDS011;58877;51.992;4.504;2023-07-16T14:56:50;5.44;;;3.61;;